sensor_id;sensor_type;location;lat;lon;timestamp;P1;P2;P0
12246;PMS7003;6186;52.022;4.692;2023-07-31T00:00:23;4.25;3.75;1.50
12246;PMS7003;6186;52.022;4.692;2023-07-31T00:02:48;6.00;5.00;2.00
12246;PMS7003;6186;52.022;4.692;2023-07-31T00:05:13;6.25;4.25;2.00
12246;PMS7003;6186;52.022;4.692;2023-07-31T00:07:39;4.75;4.00;1.50
12246;PMS7003;6186;52.022;4.692;2023-07-31T00:10:04;4.50;4.25;2.00
12246;PMS7003;6186;52.022;4.692;2023-07-31T00:12:29;5.50;4.00;1.00
12246;PMS7003;6186;52.022;4.692;2023-07-31T00:14:55;5.75;5.00;1.75
12246;PMS7003;6186;52.022;4.692;2023-07-31T00:17:20;3.00;3.00;1.00
12246;PMS7003;6186;52.022;4.692;2023-07-31T00:19:45;5.25;4.25;1.00
12246;PMS7003;6186;52.022;4.692;2023-07-31T00:22:10;4.25;4.00;1.00
12246;PMS7003;6186;52.022;4.692;2023-07-31T00:24:36;5.00;4.00;1.00
12246;PMS7003;6186;52.022;4.692;2023-07-31T00:27:01;4.00;4.00;1.50
12246;PMS7003;6186;52.022;4.692;2023-07-31T00:29:26;5.00;5.00;1.00
12246;PMS7003;6186;52.022;4.692;2023-07-31T00:31:51;6.00;5.00;1.50
12246;PMS7003;6186;52.022;4.692;2023-07-31T00:34:16;6.00;4.00;1.25
12246;PMS7003;6186;52.022;4.692;2023-07-31T00:36:42;7.50;5.00;2.00
12246;PMS7003;6186;52.022;4.692;2023-07-31T00:39:07;5.75;4.75;1.75
12246;PMS7003;6186;52.022;4.692;2023-07-31T00:41:32;4.50;4.50;1.25
12246;PMS7003;6186;52.022;4.692;2023-07-31T00:43:57;5.50;5.00;2.00
12246;PMS7003;6186;52.022;4.692;2023-07-31T00:46:22;3.00;3.00;1.00
12246;PMS7003;6186;52.022;4.692;2023-07-31T00:48:48;6.75;5.50;2.00
12246;PMS7003;6186;52.022;4.692;2023-07-31T00:51:14;7.00;5.00;1.60
12246;PMS7003;6186;52.022;4.692;2023-07-31T00:53:40;5.00;5.00;1.50
12246;PMS7003;6186;52.022;4.692;2023-07-31T00:56:06;5.20;4.60;1.20
12246;PMS7003;6186;52.022;4.692;2023-07-31T00:58:31;6.00;4.50;1.00
12246;PMS7003;6186;52.022;4.692;2023-07-31T01:00:57;4.00;3.00;1.00
12246;PMS7003;6186;52.022;4.692;2023-07-31T01:03:22;4.75;4.25;1.50
12246;PMS7003;6186;52.022;4.692;2023-07-31T01:08:58;5.00;5.00;2.00
12246;PMS7003;6186;52.022;4.692;2023-07-31T01:11:29;4.40;4.20;2.00
12246;PMS7003;6186;52.022;4.692;2023-07-31T01:13:56;5.00;4.40;1.60
12246;PMS7003;6186;52.022;4.692;2023-07-31T01:16:22;4.20;4.00;1.00
12246;PMS7003;6186;52.022;4.692;2023-07-31T01:18:47;3.25;3.25;1.00
12246;PMS7003;6186;52.022;4.692;2023-07-31T01:26:36;3.60;3.00;1.00
12246;PMS7003;6186;52.022;4.692;2023-07-31T01:29:08;3.20;3.20;1.00
12246;PMS7003;6186;52.022;4.692;2023-07-31T01:31:40;3.60;3.00;1.00
12246;PMS7003;6186;52.022;4.692;2023-07-31T01:34:07;4.00;3.20;1.00
12246;PMS7003;6186;52.022;4.692;2023-07-31T01:36:34;4.40;4.00;1.60
12246;PMS7003;6186;52.022;4.692;2023-07-31T01:39:00;4.00;4.00;1.00
12246;PMS7003;6186;52.022;4.692;2023-07-31T01:41:26;5.40;4.60;1.20
12246;PMS7003;6186;52.022;4.692;2023-07-31T01:43:52;6.00;4.00;1.00
12246;PMS7003;6186;52.022;4.692;2023-07-31T01:46:17;4.00;4.00;1.00
12246;PMS7003;6186;52.022;4.692;2023-07-31T01:48:43;3.75;3.75;1.50
12246;PMS7003;6186;52.022;4.692;2023-07-31T01:51:08;4.50;4.00;1.50
12246;PMS7003;6186;52.022;4.692;2023-07-31T01:53:33;4.50;4.25;1.00
12246;PMS7003;6186;52.022;4.692;2023-07-31T01:55:58;5.75;4.00;1.00
12246;PMS7003;6186;52.022;4.692;2023-07-31T01:58:24;5.75;5.00;1.00
12246;PMS7003;6186;52.022;4.692;2023-07-31T02:00:49;7.00;6.25;2.00
12246;PMS7003;6186;52.022;4.692;2023-07-31T02:03:14;4.25;3.75;1.00
12246;PMS7003;6186;52.022;4.692;2023-07-31T02:05:46;6.50;5.50;2.25
12246;PMS7003;6186;52.022;4.692;2023-07-31T02:08:12;6.20;5.00;1.60
12246;PMS7003;6186;52.022;4.692;2023-07-31T02:10:37;5.50;4.00;2.00
12246;PMS7003;6186;52.022;4.692;2023-07-31T02:13:02;4.50;3.50;1.00
12246;PMS7003;6186;52.022;4.692;2023-07-31T02:15:28;7.00;6.00;2.00
12246;PMS7003;6186;52.022;4.692;2023-07-31T02:17:53;5.00;4.50;1.00
12246;PMS7003;6186;52.022;4.692;2023-07-31T02:20:18;5.75;5.00;2.00
12246;PMS7003;6186;52.022;4.692;2023-07-31T02:22:43;4.00;3.75;1.00
12246;PMS7003;6186;52.022;4.692;2023-07-31T02:25:08;5.75;4.75;2.00
12246;PMS7003;6186;52.022;4.692;2023-07-31T02:27:34;5.00;5.00;2.00
12246;PMS7003;6186;52.022;4.692;2023-07-31T02:29:59;4.75;4.00;2.00
12246;PMS7003;6186;52.022;4.692;2023-07-31T02:32:24;7.25;6.00;2.00
12246;PMS7003;6186;52.022;4.692;2023-07-31T02:34:49;6.00;5.00;2.75
12246;PMS7003;6186;52.022;4.692;2023-07-31T02:37:14;6.00;5.25;2.00
12246;PMS7003;6186;52.022;4.692;2023-07-31T02:39:40;6.00;4.00;1.00
12246;PMS7003;6186;52.022;4.692;2023-07-31T02:42:05;5.25;4.75;1.25
12246;PMS7003;6186;52.022;4.692;2023-07-31T02:44:30;6.75;5.75;2.00
12246;PMS7003;6186;52.022;4.692;2023-07-31T02:46:55;5.00;5.00;2.00
12246;PMS7003;6186;52.022;4.692;2023-07-31T02:49:21;6.00;5.00;2.00
12246;PMS7003;6186;52.022;4.692;2023-07-31T02:51:46;6.50;5.00;2.00
12246;PMS7003;6186;52.022;4.692;2023-07-31T02:54:11;4.25;4.25;2.00
12246;PMS7003;6186;52.022;4.692;2023-07-31T02:56:36;4.00;3.50;1.00
12246;PMS7003;6186;52.022;4.692;2023-07-31T02:59:01;5.00;4.50;2.00
12246;PMS7003;6186;52.022;4.692;2023-07-31T03:01:27;5.50;4.50;1.75
12246;PMS7003;6186;52.022;4.692;2023-07-31T03:03:52;4.25;4.00;1.25
12246;PMS7003;6186;52.022;4.692;2023-07-31T03:06:17;5.25;4.00;1.75
12246;PMS7003;6186;52.022;4.692;2023-07-31T03:08:42;5.50;5.00;1.75
12246;PMS7003;6186;52.022;4.692;2023-07-31T03:11:08;4.50;4.00;2.00
12246;PMS7003;6186;52.022;4.692;2023-07-31T03:13:33;5.75;5.75;2.00
12246;PMS7003;6186;52.022;4.692;2023-07-31T03:15:58;4.50;4.25;1.00
12246;PMS7003;6186;52.022;4.692;2023-07-31T03:18:23;6.00;6.00;2.00
12246;PMS7003;6186;52.022;4.692;2023-07-31T03:20:48;7.00;5.00;2.00
12246;PMS7003;6186;52.022;4.692;2023-07-31T03:23:14;5.00;4.25;2.00
12246;PMS7003;6186;52.022;4.692;2023-07-31T03:25:41;4.00;4.00;1.50
12246;PMS7003;6186;52.022;4.692;2023-07-31T03:28:24;6.00;5.20;2.00
12246;PMS7003;6186;52.022;4.692;2023-07-31T03:30:49;4.50;4.00;2.00
12246;PMS7003;6186;52.022;4.692;2023-07-31T03:33:14;5.25;4.50;2.00
12246;PMS7003;6186;52.022;4.692;2023-07-31T03:35:39;5.50;4.75;2.00
12246;PMS7003;6186;52.022;4.692;2023-07-31T03:38:05;4.50;4.25;1.75
12246;PMS7003;6186;52.022;4.692;2023-07-31T03:40:30;6.50;5.00;2.00
12246;PMS7003;6186;52.022;4.692;2023-07-31T03:42:55;5.00;4.25;1.75
12246;PMS7003;6186;52.022;4.692;2023-07-31T03:45:20;5.25;5.25;2.00
12246;PMS7003;6186;52.022;4.692;2023-07-31T03:47:46;6.50;4.25;1.75
12246;PMS7003;6186;52.022;4.692;2023-07-31T03:50:11;6.00;6.00;1.75
12246;PMS7003;6186;52.022;4.692;2023-07-31T03:52:36;5.75;5.75;2.75
12246;PMS7003;6186;52.022;4.692;2023-07-31T03:55:01;3.25;3.25;1.00
12246;PMS7003;6186;52.022;4.692;2023-07-31T03:57:26;5.50;4.00;1.75
12246;PMS7003;6186;52.022;4.692;2023-07-31T03:59:52;5.75;5.00;1.75
12246;PMS7003;6186;52.022;4.692;2023-07-31T04:02:17;4.00;4.00;1.75
12246;PMS7003;6186;52.022;4.692;2023-07-31T04:04:42;6.50;4.75;2.00
12246;PMS7003;6186;52.022;4.692;2023-07-31T04:07:07;5.00;5.00;2.00
12246;PMS7003;6186;52.022;4.692;2023-07-31T04:09:32;5.00;4.00;1.50
12246;PMS7003;6186;52.022;4.692;2023-07-31T04:11:58;5.25;4.00;1.50
12246;PMS7003;6186;52.022;4.692;2023-07-31T04:14:23;4.00;4.00;1.50
12246;PMS7003;6186;52.022;4.692;2023-07-31T04:16:48;3.75;3.25;1.00
12246;PMS7003;6186;52.022;4.692;2023-07-31T04:19:15;4.60;4.00;2.00
12246;PMS7003;6186;52.022;4.692;2023-07-31T04:21:40;5.00;4.00;1.75
12246;PMS7003;6186;52.022;4.692;2023-07-31T04:24:05;5.00;4.00;1.25
12246;PMS7003;6186;52.022;4.692;2023-07-31T04:26:30;4.50;4.50;2.00
12246;PMS7003;6186;52.022;4.692;2023-07-31T04:28:56;3.00;3.00;1.00
12246;PMS7003;6186;52.022;4.692;2023-07-31T04:31:21;3.00;3.00;1.00
12246;PMS7003;6186;52.022;4.692;2023-07-31T04:33:46;3.00;2.50;1.00
12246;PMS7003;6186;52.022;4.692;2023-07-31T04:36:11;4.00;4.00;1.25
12246;PMS7003;6186;52.022;4.692;2023-07-31T04:38:36;4.00;3.50;1.00
12246;PMS7003;6186;52.022;4.692;2023-07-31T04:41:02;3.00;3.00;1.00
12246;PMS7003;6186;52.022;4.692;2023-07-31T04:43:27;3.00;3.00;0.00
12246;PMS7003;6186;52.022;4.692;2023-07-31T04:45:52;2.25;2.25;1.00
12246;PMS7003;6186;52.022;4.692;2023-07-31T04:48:17;4.00;3.00;1.00
12246;PMS7003;6186;52.022;4.692;2023-07-31T04:50:43;2.00;2.00;0.00
12246;PMS7003;6186;52.022;4.692;2023-07-31T04:53:08;3.00;2.00;0.75
12246;PMS7003;6186;52.022;4.692;2023-07-31T04:55:33;3.00;3.00;1.00
12246;PMS7003;6186;52.022;4.692;2023-07-31T04:57:59;3.00;2.00;0.00
12246;PMS7003;6186;52.022;4.692;2023-07-31T05:00:24;2.00;2.00;1.00
12246;PMS7003;6186;52.022;4.692;2023-07-31T05:02:49;4.00;3.75;1.00
12246;PMS7003;6186;52.022;4.692;2023-07-31T05:05:15;2.50;2.50;0.25
12246;PMS7003;6186;52.022;4.692;2023-07-31T05:07:40;3.00;3.00;1.00
12246;PMS7003;6186;52.022;4.692;2023-07-31T05:10:05;4.50;4.00;2.00
12246;PMS7003;6186;52.022;4.692;2023-07-31T05:12:31;4.00;4.00;1.25
12246;PMS7003;6186;52.022;4.692;2023-07-31T05:14:56;2.00;2.00;1.00
12246;PMS7003;6186;52.022;4.692;2023-07-31T05:17:21;2.75;2.00;1.00
12246;PMS7003;6186;52.022;4.692;2023-07-31T05:19:46;3.50;3.00;1.00
12246;PMS7003;6186;52.022;4.692;2023-07-31T05:22:11;3.00;3.00;1.00
12246;PMS7003;6186;52.022;4.692;2023-07-31T05:24:37;4.00;3.75;0.75
12246;PMS7003;6186;52.022;4.692;2023-07-31T05:27:02;4.50;3.00;1.00
12246;PMS7003;6186;52.022;4.692;2023-07-31T05:29:27;3.00;3.00;1.00
12246;PMS7003;6186;52.022;4.692;2023-07-31T05:31:53;3.00;2.00;1.00
12246;PMS7003;6186;52.022;4.692;2023-07-31T05:34:18;3.00;2.75;1.00
12246;PMS7003;6186;52.022;4.692;2023-07-31T05:36:43;2.00;2.00;0.75
12246;PMS7003;6186;52.022;4.692;2023-07-31T05:39:08;2.75;2.75;1.00
12246;PMS7003;6186;52.022;4.692;2023-07-31T05:41:35;2.00;2.00;0.00
12246;PMS7003;6186;52.022;4.692;2023-07-31T05:44:00;3.80;2.60;1.00
12246;PMS7003;6186;52.022;4.692;2023-07-31T05:46:25;2.25;2.25;1.00
12246;PMS7003;6186;52.022;4.692;2023-07-31T05:48:51;3.00;3.00;1.00
12246;PMS7003;6186;52.022;4.692;2023-07-31T05:51:16;2.00;2.00;0.00
12246;PMS7003;6186;52.022;4.692;2023-07-31T05:53:41;2.50;2.50;1.00
12246;PMS7003;6186;52.022;4.692;2023-07-31T05:56:06;2.00;2.00;0.00
12246;PMS7003;6186;52.022;4.692;2023-07-31T05:58:31;2.00;2.00;0.00
12246;PMS7003;6186;52.022;4.692;2023-07-31T06:00:57;2.50;2.50;1.00
12246;PMS7003;6186;52.022;4.692;2023-07-31T06:03:22;3.75;3.25;1.00
12246;PMS7003;6186;52.022;4.692;2023-07-31T06:05:47;2.00;2.00;0.75
12246;PMS7003;6186;52.022;4.692;2023-07-31T06:08:12;2.00;2.00;0.00
12246;PMS7003;6186;52.022;4.692;2023-07-31T06:10:37;2.25;2.00;0.00
12246;PMS7003;6186;52.022;4.692;2023-07-31T06:13:03;3.00;3.00;1.00
12246;PMS7003;6186;52.022;4.692;2023-07-31T06:15:28;3.00;2.50;1.00
12246;PMS7003;6186;52.022;4.692;2023-07-31T06:17:53;2.25;2.00;0.00
12246;PMS7003;6186;52.022;4.692;2023-07-31T06:20:18;2.00;2.00;0.50
12246;PMS7003;6186;52.022;4.692;2023-07-31T06:22:43;2.75;2.00;0.75
12246;PMS7003;6186;52.022;4.692;2023-07-31T06:25:09;2.00;2.00;0.00
12246;PMS7003;6186;52.022;4.692;2023-07-31T06:27:34;2.25;2.25;0.50
12246;PMS7003;6186;52.022;4.692;2023-07-31T06:29:59;3.00;2.25;1.00
12246;PMS7003;6186;52.022;4.692;2023-07-31T06:32:24;2.00;2.00;0.00
12246;PMS7003;6186;52.022;4.692;2023-07-31T06:34:50;2.00;2.00;0.00
12246;PMS7003;6186;52.022;4.692;2023-07-31T06:37:15;2.25;2.25;1.00
12246;PMS7003;6186;52.022;4.692;2023-07-31T06:39:40;2.00;2.00;0.00
12246;PMS7003;6186;52.022;4.692;2023-07-31T06:42:06;3.00;2.00;0.00
12246;PMS7003;6186;52.022;4.692;2023-07-31T06:44:31;2.00;2.00;0.25
12246;PMS7003;6186;52.022;4.692;2023-07-31T06:46:56;2.25;2.00;0.50
12246;PMS7003;6186;52.022;4.692;2023-07-31T06:49:21;2.75;2.00;0.00
12246;PMS7003;6186;52.022;4.692;2023-07-31T06:51:47;2.25;2.25;0.50
12246;PMS7003;6186;52.022;4.692;2023-07-31T06:54:12;2.00;2.00;0.00
12246;PMS7003;6186;52.022;4.692;2023-07-31T06:56:37;2.25;2.00;0.00
12246;PMS7003;6186;52.022;4.692;2023-07-31T06:59:03;1.00;1.00;0.00
12246;PMS7003;6186;52.022;4.692;2023-07-31T07:01:28;1.00;1.00;0.00
12246;PMS7003;6186;52.022;4.692;2023-07-31T07:03:53;1.00;1.00;0.00
12246;PMS7003;6186;52.022;4.692;2023-07-31T07:06:18;1.25;1.25;0.00
12246;PMS7003;6186;52.022;4.692;2023-07-31T07:08:44;1.75;1.75;0.00
12246;PMS7003;6186;52.022;4.692;2023-07-31T07:11:09;2.00;2.00;0.00
12246;PMS7003;6186;52.022;4.692;2023-07-31T07:13:34;3.00;2.00;0.00
12246;PMS7003;6186;52.022;4.692;2023-07-31T07:16:00;1.00;1.00;0.00
12246;PMS7003;6186;52.022;4.692;2023-07-31T07:18:25;1.25;1.25;0.00
12246;PMS7003;6186;52.022;4.692;2023-07-31T07:20:51;2.00;1.50;0.00
12246;PMS7003;6186;52.022;4.692;2023-07-31T07:23:17;1.00;1.00;0.00
12246;PMS7003;6186;52.022;4.692;2023-07-31T07:25:43;1.00;1.00;0.00
12246;PMS7003;6186;52.022;4.692;2023-07-31T07:28:09;2.00;1.50;0.00
12246;PMS7003;6186;52.022;4.692;2023-07-31T07:30:34;1.00;1.00;0.00
12246;PMS7003;6186;52.022;4.692;2023-07-31T07:33:00;2.00;2.00;0.00
12246;PMS7003;6186;52.022;4.692;2023-07-31T07:35:25;2.00;1.50;0.00
12246;PMS7003;6186;52.022;4.692;2023-07-31T07:37:50;1.75;1.75;0.00
12246;PMS7003;6186;52.022;4.692;2023-07-31T07:40:15;1.00;1.00;0.00
12246;PMS7003;6186;52.022;4.692;2023-07-31T07:42:41;2.00;1.00;0.00
12246;PMS7003;6186;52.022;4.692;2023-07-31T07:45:06;2.00;2.00;0.00
12246;PMS7003;6186;52.022;4.692;2023-07-31T07:47:32;1.60;1.00;0.00
12246;PMS7003;6186;52.022;4.692;2023-07-31T07:49:57;2.00;1.50;0.00
12246;PMS7003;6186;52.022;4.692;2023-07-31T07:52:22;1.00;1.00;0.00
12246;PMS7003;6186;52.022;4.692;2023-07-31T07:54:48;1.00;1.00;0.00
12246;PMS7003;6186;52.022;4.692;2023-07-31T07:57:13;1.00;1.00;0.00
12246;PMS7003;6186;52.022;4.692;2023-07-31T07:59:38;1.00;1.00;0.00
12246;PMS7003;6186;52.022;4.692;2023-07-31T08:02:03;1.00;1.00;0.00
12246;PMS7003;6186;52.022;4.692;2023-07-31T08:04:29;1.75;1.75;0.00
12246;PMS7003;6186;52.022;4.692;2023-07-31T08:06:54;1.00;1.00;0.00
12246;PMS7003;6186;52.022;4.692;2023-07-31T08:09:19;1.00;1.00;0.00
12246;PMS7003;6186;52.022;4.692;2023-07-31T08:11:44;1.50;1.50;0.00
12246;PMS7003;6186;52.022;4.692;2023-07-31T08:14:10;1.00;1.00;0.00
12246;PMS7003;6186;52.022;4.692;2023-07-31T08:16:35;1.00;1.00;0.00
12246;PMS7003;6186;52.022;4.692;2023-07-31T08:19:00;1.00;1.00;0.00
12246;PMS7003;6186;52.022;4.692;2023-07-31T08:21:25;1.75;1.00;0.00
12246;PMS7003;6186;52.022;4.692;2023-07-31T08:23:50;1.00;1.00;0.00
12246;PMS7003;6186;52.022;4.692;2023-07-31T08:26:16;1.00;1.00;0.00
12246;PMS7003;6186;52.022;4.692;2023-07-31T08:28:42;1.00;1.00;0.00
12246;PMS7003;6186;52.022;4.692;2023-07-31T08:31:08;1.00;1.00;0.00
12246;PMS7003;6186;52.022;4.692;2023-07-31T08:33:33;1.00;1.00;0.00
12246;PMS7003;6186;52.022;4.692;2023-07-31T08:35:58;1.00;1.00;0.00
12246;PMS7003;6186;52.022;4.692;2023-07-31T08:38:23;1.00;1.00;0.00
12246;PMS7003;6186;52.022;4.692;2023-07-31T08:40:48;1.00;1.00;0.00
12246;PMS7003;6186;52.022;4.692;2023-07-31T08:43:14;1.00;1.00;0.00
12246;PMS7003;6186;52.022;4.692;2023-07-31T08:45:39;1.00;1.00;0.00
12246;PMS7003;6186;52.022;4.692;2023-07-31T08:48:06;1.00;1.00;0.00
12246;PMS7003;6186;52.022;4.692;2023-07-31T08:50:31;1.25;1.00;0.00
12246;PMS7003;6186;52.022;4.692;2023-07-31T08:52:57;1.00;1.00;0.00
12246;PMS7003;6186;52.022;4.692;2023-07-31T08:55:22;1.00;1.00;0.00
12246;PMS7003;6186;52.022;4.692;2023-07-31T08:57:48;1.00;1.00;0.00
12246;PMS7003;6186;52.022;4.692;2023-07-31T09:00:15;1.40;1.00;0.00
12246;PMS7003;6186;52.022;4.692;2023-07-31T09:02:42;1.00;1.00;0.00
12246;PMS7003;6186;52.022;4.692;2023-07-31T09:05:11;1.00;1.00;0.00
12246;PMS7003;6186;52.022;4.692;2023-07-31T09:07:37;1.00;1.00;0.00
12246;PMS7003;6186;52.022;4.692;2023-07-31T09:10:03;1.00;1.00;0.00
12246;PMS7003;6186;52.022;4.692;2023-07-31T09:12:29;1.00;1.00;0.00
12246;PMS7003;6186;52.022;4.692;2023-07-31T09:14:56;1.00;1.00;0.00
12246;PMS7003;6186;52.022;4.692;2023-07-31T09:17:31;1.20;1.00;0.00
12246;PMS7003;6186;52.022;4.692;2023-07-31T09:20:13;1.00;1.00;0.00
12246;PMS7003;6186;52.022;4.692;2023-07-31T09:22:39;1.00;1.00;0.00
12246;PMS7003;6186;52.022;4.692;2023-07-31T09:25:17;1.00;1.00;0.00
12246;PMS7003;6186;52.022;4.692;2023-07-31T09:30:19;2.00;2.00;0.00
12246;PMS7003;6186;52.022;4.692;2023-07-31T09:32:46;2.20;2.00;0.00
12246;PMS7003;6186;52.022;4.692;2023-07-31T09:35:13;2.00;1.40;0.00
12246;PMS7003;6186;52.022;4.692;2023-07-31T09:37:43;2.00;2.00;0.00
12246;PMS7003;6186;52.022;4.692;2023-07-31T09:40:08;1.50;1.50;0.00
12246;PMS7003;6186;52.022;4.692;2023-07-31T09:42:34;2.00;2.00;0.50
12246;PMS7003;6186;52.022;4.692;2023-07-31T09:45:08;2.50;2.00;0.50
12246;PMS7003;6186;52.022;4.692;2023-07-31T09:47:34;2.00;2.00;0.80
12246;PMS7003;6186;52.022;4.692;2023-07-31T09:50:00;2.00;2.00;0.25
12246;PMS7003;6186;52.022;4.692;2023-07-31T09:52:26;2.00;2.00;0.75
12246;PMS7003;6186;52.022;4.692;2023-07-31T09:54:51;2.00;2.00;1.00
12246;PMS7003;6186;52.022;4.692;2023-07-31T09:57:17;1.00;1.00;0.00
12246;PMS7003;6186;52.022;4.692;2023-07-31T09:59:42;1.75;1.75;0.00
12246;PMS7003;6186;52.022;4.692;2023-07-31T10:02:08;2.25;2.25;0.00
12246;PMS7003;6186;52.022;4.692;2023-07-31T10:04:39;2.80;2.80;1.00
12246;PMS7003;6186;52.022;4.692;2023-07-31T10:07:06;3.00;2.00;0.00
12246;PMS7003;6186;52.022;4.692;2023-07-31T10:09:32;2.00;2.00;0.00
12246;PMS7003;6186;52.022;4.692;2023-07-31T10:12:00;2.60;2.60;1.00
12246;PMS7003;6186;52.022;4.692;2023-07-31T10:14:27;2.00;2.00;0.00
12246;PMS7003;6186;52.022;4.692;2023-07-31T10:16:54;2.00;2.00;0.20
12246;PMS7003;6186;52.022;4.692;2023-07-31T10:19:20;1.60;1.60;0.00
12246;PMS7003;6186;52.022;4.692;2023-07-31T10:21:47;2.00;2.00;0.00
12246;PMS7003;6186;52.022;4.692;2023-07-31T10:24:13;2.00;2.00;0.20
12246;PMS7003;6186;52.022;4.692;2023-07-31T10:26:40;2.00;2.00;0.00
12246;PMS7003;6186;52.022;4.692;2023-07-31T10:29:08;2.00;2.00;0.00
12246;PMS7003;6186;52.022;4.692;2023-07-31T10:31:33;1.25;1.25;0.00
12246;PMS7003;6186;52.022;4.692;2023-07-31T10:34:00;2.00;2.00;0.00
12246;PMS7003;6186;52.022;4.692;2023-07-31T10:36:26;2.00;2.00;0.50
12246;PMS7003;6186;52.022;4.692;2023-07-31T10:38:51;3.00;2.00;0.50
12246;PMS7003;6186;52.022;4.692;2023-07-31T10:41:16;2.00;2.00;0.25
12246;PMS7003;6186;52.022;4.692;2023-07-31T10:43:41;3.00;3.00;1.00
12246;PMS7003;6186;52.022;4.692;2023-07-31T10:46:07;2.25;2.25;0.25
12246;PMS7003;6186;52.022;4.692;2023-07-31T10:48:34;2.60;2.60;1.00
12246;PMS7003;6186;52.022;4.692;2023-07-31T10:50:59;2.00;2.00;0.00
12246;PMS7003;6186;52.022;4.692;2023-07-31T10:53:25;3.00;2.50;0.75
12246;PMS7003;6186;52.022;4.692;2023-07-31T10:55:52;2.20;2.00;1.00
12246;PMS7003;6186;52.022;4.692;2023-07-31T10:58:18;3.00;3.00;1.00
12246;PMS7003;6186;52.022;4.692;2023-07-31T11:00:44;2.00;2.00;0.60
12246;PMS7003;6186;52.022;4.692;2023-07-31T11:05:45;2.00;2.00;0.00
12246;PMS7003;6186;52.022;4.692;2023-07-31T11:10:38;3.60;2.00;0.40
12246;PMS7003;6186;52.022;4.692;2023-07-31T11:13:04;2.25;2.25;1.00
12246;PMS7003;6186;52.022;4.692;2023-07-31T11:15:29;5.00;4.00;1.25
12246;PMS7003;6186;52.022;4.692;2023-07-31T11:17:55;2.25;2.00;1.00
12246;PMS7003;6186;52.022;4.692;2023-07-31T11:20:20;2.00;2.00;0.40
12246;PMS7003;6186;52.022;4.692;2023-07-31T11:22:46;3.75;3.75;1.00
12246;PMS7003;6186;52.022;4.692;2023-07-31T11:25:14;3.00;2.60;0.00
12246;PMS7003;6186;52.022;4.692;2023-07-31T11:27:39;3.00;3.00;1.00
12246;PMS7003;6186;52.022;4.692;2023-07-31T11:30:05;3.00;3.00;1.00
12246;PMS7003;6186;52.022;4.692;2023-07-31T11:32:30;3.50;3.00;1.00
12246;PMS7003;6186;52.022;4.692;2023-07-31T11:34:55;4.00;4.00;2.00
12246;PMS7003;6186;52.022;4.692;2023-07-31T11:37:21;3.00;3.00;1.75
12246;PMS7003;6186;52.022;4.692;2023-07-31T11:39:59;5.75;4.75;2.00
12246;PMS7003;6186;52.022;4.692;2023-07-31T11:42:25;4.60;4.00;1.80
12246;PMS7003;6186;52.022;4.692;2023-07-31T11:44:50;5.75;4.25;2.00
12246;PMS7003;6186;52.022;4.692;2023-07-31T11:47:15;4.00;4.00;1.00
12246;PMS7003;6186;52.022;4.692;2023-07-31T11:49:41;3.80;3.00;1.00
12246;PMS7003;6186;52.022;4.692;2023-07-31T11:52:08;3.20;3.20;2.00
12246;PMS7003;6186;52.022;4.692;2023-07-31T11:54:33;2.75;2.75;1.00
12246;PMS7003;6186;52.022;4.692;2023-07-31T11:56:59;2.50;2.50;1.00
12246;PMS7003;6186;52.022;4.692;2023-07-31T11:59:24;4.00;3.50;1.00
12246;PMS7003;6186;52.022;4.692;2023-07-31T12:01:50;3.00;3.00;1.25
12246;PMS7003;6186;52.022;4.692;2023-07-31T12:04:15;3.00;3.00;1.00
12246;PMS7003;6186;52.022;4.692;2023-07-31T12:06:40;5.00;4.00;2.00
12246;PMS7003;6186;52.022;4.692;2023-07-31T12:09:06;4.75;3.75;1.50
12246;PMS7003;6186;52.022;4.692;2023-07-31T12:11:31;4.00;4.00;1.25
12246;PMS7003;6186;52.022;4.692;2023-07-31T12:14:07;4.00;4.00;1.00
12246;PMS7003;6186;52.022;4.692;2023-07-31T12:16:32;3.00;3.00;1.00
12246;PMS7003;6186;52.022;4.692;2023-07-31T12:18:57;2.25;2.00;0.00
12246;PMS7003;6186;52.022;4.692;2023-07-31T12:21:23;3.75;3.00;1.00
12246;PMS7003;6186;52.022;4.692;2023-07-31T12:23:48;4.00;4.00;1.75
12246;PMS7003;6186;52.022;4.692;2023-07-31T12:26:14;3.25;3.00;1.00
12246;PMS7003;6186;52.022;4.692;2023-07-31T12:31:27;3.20;3.00;1.00
12246;PMS7003;6186;52.022;4.692;2023-07-31T12:33:53;4.00;3.00;1.00
12246;PMS7003;6186;52.022;4.692;2023-07-31T12:36:22;3.00;2.25;1.00
12246;PMS7003;6186;52.022;4.692;2023-07-31T12:38:49;3.60;3.20;2.00
12246;PMS7003;6186;52.022;4.692;2023-07-31T12:41:15;2.80;2.80;1.00
12246;PMS7003;6186;52.022;4.692;2023-07-31T12:43:41;3.00;2.50;1.00
12246;PMS7003;6186;52.022;4.692;2023-07-31T12:46:07;4.40;3.60;1.00
12246;PMS7003;6186;52.022;4.692;2023-07-31T12:48:33;3.60;3.60;1.00
12246;PMS7003;6186;52.022;4.692;2023-07-31T12:50:59;3.00;3.00;1.00
12246;PMS7003;6186;52.022;4.692;2023-07-31T12:53:24;4.00;4.00;2.00
12246;PMS7003;6186;52.022;4.692;2023-07-31T12:55:49;3.00;3.00;1.00
12246;PMS7003;6186;52.022;4.692;2023-07-31T12:58:14;2.00;2.00;1.00
12246;PMS7003;6186;52.022;4.692;2023-07-31T13:00:39;3.00;3.00;0.75
12246;PMS7003;6186;52.022;4.692;2023-07-31T13:03:05;3.00;3.00;1.00
12246;PMS7003;6186;52.022;4.692;2023-07-31T13:05:30;3.25;3.25;1.25
12246;PMS7003;6186;52.022;4.692;2023-07-31T13:07:55;3.00;3.00;1.00
12246;PMS7003;6186;52.022;4.692;2023-07-31T13:10:22;3.75;3.75;1.00
12246;PMS7003;6186;52.022;4.692;2023-07-31T13:12:48;2.00;2.00;1.00
12246;PMS7003;6186;52.022;4.692;2023-07-31T13:15:13;2.75;2.75;1.00
12246;PMS7003;6186;52.022;4.692;2023-07-31T13:17:39;3.20;3.00;1.00
12246;PMS7003;6186;52.022;4.692;2023-07-31T13:20:04;1.50;1.50;0.00
12246;PMS7003;6186;52.022;4.692;2023-07-31T13:22:30;4.00;2.40;0.20
12246;PMS7003;6186;52.022;4.692;2023-07-31T13:24:56;2.75;2.75;1.00
12246;PMS7003;6186;52.022;4.692;2023-07-31T13:27:21;2.00;2.00;1.00
12246;PMS7003;6186;52.022;4.692;2023-07-31T13:29:47;4.00;2.00;0.00
12246;PMS7003;6186;52.022;4.692;2023-07-31T13:32:13;2.00;2.00;0.00
12246;PMS7003;6186;52.022;4.692;2023-07-31T13:34:38;2.00;2.00;0.00
12246;PMS7003;6186;52.022;4.692;2023-07-31T13:37:03;2.00;2.00;1.00
12246;PMS7003;6186;52.022;4.692;2023-07-31T13:39:29;2.75;2.00;0.00
12246;PMS7003;6186;52.022;4.692;2023-07-31T13:41:54;2.00;2.00;0.00
12246;PMS7003;6186;52.022;4.692;2023-07-31T13:44:19;1.00;1.00;0.00
12246;PMS7003;6186;52.022;4.692;2023-07-31T13:46:44;1.00;1.00;0.00
12246;PMS7003;6186;52.022;4.692;2023-07-31T13:49:09;2.00;1.25;0.00
12246;PMS7003;6186;52.022;4.692;2023-07-31T13:51:35;2.00;2.00;0.00
12246;PMS7003;6186;52.022;4.692;2023-07-31T13:54:00;2.00;2.00;0.00
12246;PMS7003;6186;52.022;4.692;2023-07-31T13:56:26;1.60;1.20;0.00
12246;PMS7003;6186;52.022;4.692;2023-07-31T13:58:51;1.75;1.75;0.00
12246;PMS7003;6186;52.022;4.692;2023-07-31T14:01:17;1.00;1.00;0.00
12246;PMS7003;6186;52.022;4.692;2023-07-31T14:03:42;1.50;1.50;0.00
12246;PMS7003;6186;52.022;4.692;2023-07-31T14:06:07;1.00;1.00;0.00
12246;PMS7003;6186;52.022;4.692;2023-07-31T14:08:32;1.00;1.00;0.00
12246;PMS7003;6186;52.022;4.692;2023-07-31T14:10:58;1.00;1.00;0.00
12246;PMS7003;6186;52.022;4.692;2023-07-31T14:13:23;1.00;1.00;0.00
12246;PMS7003;6186;52.022;4.692;2023-07-31T14:15:48;1.00;1.00;0.00
12246;PMS7003;6186;52.022;4.692;2023-07-31T14:18:13;1.00;1.00;0.00
12246;PMS7003;6186;52.022;4.692;2023-07-31T14:20:38;2.00;2.00;0.00
12246;PMS7003;6186;52.022;4.692;2023-07-31T14:23:04;1.25;1.25;0.00
12246;PMS7003;6186;52.022;4.692;2023-07-31T14:25:29;1.00;1.00;0.00
12246;PMS7003;6186;52.022;4.692;2023-07-31T14:27:54;1.00;1.00;0.00
12246;PMS7003;6186;52.022;4.692;2023-07-31T14:30:20;1.00;1.00;0.00
12246;PMS7003;6186;52.022;4.692;2023-07-31T14:32:45;1.00;1.00;0.00
12246;PMS7003;6186;52.022;4.692;2023-07-31T14:35:11;0.40;0.40;0.00
12246;PMS7003;6186;52.022;4.692;2023-07-31T14:37:37;1.00;1.00;0.00
12246;PMS7003;6186;52.022;4.692;2023-07-31T14:40:03;1.00;1.00;0.00
12246;PMS7003;6186;52.022;4.692;2023-07-31T14:42:29;2.00;2.00;0.00
12246;PMS7003;6186;52.022;4.692;2023-07-31T14:44:54;1.75;1.00;0.00